createdAt,value
2022-08-26T00:01:54.062Z,100973.09
2022-08-26T00:04:23.561Z,100967.72
2022-08-26T00:06:51.091Z,100964.34
2022-08-26T00:09:18.405Z,100963.34
2022-08-26T00:11:46.391Z,100959.78
2022-08-26T00:14:15.768Z,100963.19
2022-08-26T00:16:48.161Z,100960.38
2022-08-26T00:19:17.923Z,100953.00
2022-08-26T00:21:46.278Z,100952.03
2022-08-26T00:24:16.531Z,100949.03
2022-08-26T00:26:44.759Z,100951.53
2022-08-26T00:29:12.272Z,100942.16
2022-08-26T00:31:40.514Z,100950.38
2022-08-26T00:34:09.516Z,100946.84
2022-08-26T00:36:37.102Z,100940.16
2022-08-26T00:39:06.982Z,100943.38
2022-08-26T00:41:35.175Z,100937.59
2022-08-26T00:44:02.728Z,100944.19
2022-08-26T00:46:34.160Z,100943.22
2022-08-26T00:49:28.142Z,100939.34
2022-08-26T00:51:58.323Z,100939.75
2022-08-26T00:54:31.016Z,100933.53
2022-08-26T00:57:01.893Z,100944.56
2022-08-26T00:59:32.771Z,100941.13
2022-08-26T01:02:00.776Z,100935.75
2022-08-26T01:04:31.617Z,100930.38
2022-08-26T01:06:59.178Z,100938.81
2022-08-26T01:09:27.472Z,100933.72
2022-08-26T01:11:59.138Z,100935.41
2022-08-26T01:14:29.592Z,100937.09
2022-08-26T01:16:56.814Z,100943.34
2022-08-26T01:19:32.105Z,100940.47
2022-08-26T01:22:02.709Z,100936.25
2022-08-26T01:24:31.359Z,100935.75
2022-08-26T01:27:02.455Z,100933.53
2022-08-26T01:29:31.304Z,100936.22
2022-08-26T01:31:58.800Z,100935.38
2022-08-26T01:34:32.160Z,100926.69
2022-08-26T01:37:05.386Z,100926.13
2022-08-26T01:39:33.874Z,100925.50
2022-08-26T01:42:03.133Z,100921.13
2022-08-26T01:44:44.988Z,100919.53
2022-08-26T01:47:13.735Z,100919.81
2022-08-26T01:49:42.505Z,100915.09
2022-08-26T01:52:10.933Z,100919.75
2022-08-26T01:54:40.111Z,100913.78
2022-08-26T01:57:07.924Z,100903.88
2022-08-26T01:59:35.442Z,100910.84
2022-08-26T02:02:02.915Z,100911.69
2022-08-26T02:04:34.730Z,100917.22
2022-08-26T02:07:05.200Z,100922.97
2022-08-26T02:09:33.196Z,100920.69
2022-08-26T02:12:09.419Z,100913.47
2022-08-26T02:14:43.873Z,100914.47
2022-08-26T02:17:33.030Z,100913.63
2022-08-26T02:20:00.376Z,100913.63
2022-08-26T02:22:29.315Z,100904.81
2022-08-26T02:24:57.721Z,100908.63
2022-08-26T02:27:35.043Z,100908.03
2022-08-26T02:30:12.201Z,100914.00
2022-08-26T02:32:41.332Z,100919.50
2022-08-26T02:35:10.874Z,100907.88
2022-08-26T02:37:38.781Z,100910.56
2022-08-26T02:40:11.565Z,100911.44
2022-08-26T02:42:39.079Z,100908.50
2022-08-26T02:45:07.387Z,100905.81
2022-08-26T02:47:34.940Z,100914.50
2022-08-26T02:50:02.130Z,100908.69
2022-08-26T02:52:29.389Z,100907.97
2022-08-26T02:54:56.709Z,100905.13
2022-08-26T02:57:24.210Z,100894.94
2022-08-26T02:59:51.571Z,100906.53
2022-08-26T03:02:19.021Z,100895.78
2022-08-26T03:04:58.183Z,100894.94
2022-08-26T03:07:29.267Z,100897.75
2022-08-26T03:09:57.447Z,100895.19
2022-08-26T03:12:25.679Z,100897.00
2022-08-26T03:14:53.276Z,100897.53
2022-08-26T03:17:21.029Z,100886.91
2022-08-26T03:19:51.776Z,100887.91
2022-08-26T03:22:21.529Z,100885.09
2022-08-26T03:24:50.092Z,100889.47
2022-08-26T03:27:17.416Z,100886.78
2022-08-26T03:30:03.268Z,100884.38
2022-08-26T03:32:30.622Z,100886.91
2022-08-26T03:34:58.235Z,100886.06
2022-08-26T03:37:25.498Z,100885.59
2022-08-26T03:39:53.179Z,100886.59
2022-08-26T03:42:22.093Z,100888.28
2022-08-26T03:44:49.697Z,100881.47
2022-08-26T03:47:17.340Z,100878.06
2022-08-26T03:49:44.557Z,100879.06
2022-08-26T03:52:12.456Z,100878.91
2022-08-26T03:54:40.917Z,100879.78
2022-08-26T03:57:10.688Z,100872.44
2022-08-26T03:59:37.911Z,100876.84
2022-08-26T04:02:11.668Z,100875.00
2022-08-26T04:04:39.203Z,100865.97
2022-08-26T04:07:06.424Z,100870.47
2022-08-26T04:09:35.278Z,100866.34
2022-08-26T04:12:03.871Z,100873.78
2022-08-26T04:14:32.551Z,100863.56
2022-08-26T04:16:59.765Z,100864.00
2022-08-26T04:19:26.984Z,100864.16
2022-08-26T04:21:54.338Z,100857.94
2022-08-26T04:24:23.681Z,100863.06
2022-08-26T04:26:51.048Z,100863.94
2022-08-26T04:29:26.732Z,100863.94
2022-08-26T04:31:55.916Z,100864.78
2022-08-26T04:34:24.506Z,100860.84
2022-08-26T04:36:54.728Z,100867.78
2022-08-26T04:39:21.938Z,100866.81
2022-08-26T04:41:50.516Z,100863.00
2022-08-26T04:44:18.916Z,100864.72
2022-08-26T04:46:46.174Z,100867.13
2022-08-26T04:49:14.226Z,100867.72
2022-08-26T04:51:41.481Z,100867.19
2022-08-26T04:54:11.733Z,100871.34
2022-08-26T04:56:41.357Z,100872.91
2022-08-26T04:59:16.752Z,100868.16
2022-08-26T05:01:51.690Z,100876.53
2022-08-26T05:04:20.924Z,100883.31
2022-08-26T05:06:49.029Z,100879.00
2022-08-26T05:09:18.772Z,100883.13
2022-08-26T05:11:51.933Z,100888.09
2022-08-26T05:14:20.624Z,100889.84
2022-08-26T05:16:49.328Z,100888.63
2022-08-26T05:19:18.965Z,100892.06
2022-08-26T05:21:47.739Z,100893.75
2022-08-26T05:24:15.803Z,100892.75
2022-08-26T05:26:44.552Z,100890.53
2022-08-26T05:29:12.121Z,100901.44
2022-08-26T05:31:39.523Z,100889.19
2022-08-26T05:34:08.468Z,100893.56
2022-08-26T05:36:36.304Z,100891.91
2022-08-26T05:39:10.862Z,100885.56
2022-08-26T05:41:41.177Z,100887.81
2022-08-26T05:44:10.692Z,100885.16
2022-08-26T05:46:38.844Z,100889.03
2022-08-26T05:49:12.827Z,100887.22
2022-08-26T05:51:41.675Z,100890.63
2022-08-26T05:54:10.383Z,100888.66
2022-08-26T05:56:38.965Z,100894.59
2022-08-26T05:59:10.931Z,100891.34
2022-08-26T06:01:43.109Z,100892.75
2022-08-26T06:04:10.984Z,100892.63
2022-08-26T06:06:41.347Z,100899.59
2022-08-26T06:09:11.133Z,100892.63
2022-08-26T06:11:38.892Z,100903.44
2022-08-26T06:14:08.002Z,100904.00
2022-08-26T06:16:40.830Z,100902.84
2022-08-26T06:19:10.688Z,100896.00
2022-08-26T06:21:40.177Z,100898.03
2022-08-26T06:24:27.558Z,100899.00
2022-08-26T06:26:57.285Z,100890.88
2022-08-26T06:29:25.963Z,100890.94
2022-08-26T06:31:54.581Z,100897.38
2022-08-26T06:34:23.848Z,100891.31
2022-08-26T06:36:58.776Z,100895.75
2022-08-26T06:39:26.183Z,100894.06
2022-08-26T06:41:53.520Z,100898.75
2022-08-26T06:44:22.353Z,100900.84
2022-08-26T06:46:50.254Z,100899.97
2022-08-26T06:49:27.198Z,100902.47
2022-08-26T06:51:59.901Z,100905.84
2022-08-26T06:57:34.865Z,100907.34
2022-08-26T07:00:11.876Z,100905.09
2022-08-26T07:02:46.989Z,100908.50
2022-08-26T07:05:14.786Z,100901.59
2022-08-26T07:07:42.133Z,100903.56
2022-08-26T07:10:10.479Z,100899.97
2022-08-26T07:12:37.824Z,100892.16
2022-08-26T07:15:05.521Z,100895.63
2022-08-26T07:17:35.171Z,100891.13
2022-08-26T07:20:03.661Z,100884.41
2022-08-26T07:22:32.157Z,100894.03
2022-08-26T07:24:59.463Z,100888.03
2022-08-26T07:27:27.462Z,100888.72
2022-08-26T07:29:58.729Z,100890.28
2022-08-26T07:32:26.025Z,100889.25
2022-08-26T07:34:53.360Z,100887.16
2022-08-26T07:37:20.845Z,100881.78
2022-08-26T07:39:48.271Z,100880.06
2022-08-26T07:42:18.441Z,100878.72
2022-08-26T07:44:45.865Z,100880.22
2022-08-26T07:47:25.774Z,100880.09
2022-08-26T07:49:56.067Z,100875.25
2022-08-26T07:52:26.572Z,100879.91
2022-08-26T07:54:58.112Z,100882.56
2022-08-26T07:57:26.311Z,100884.41
2022-08-26T07:59:55.167Z,100882.97
2022-08-26T08:02:23.863Z,100881.47
2022-08-26T08:04:51.808Z,100871.97
2022-08-26T08:07:19.386Z,100878.50
2022-08-26T08:09:49.597Z,100876.31
2022-08-26T08:12:17.914Z,100871.13
2022-08-26T08:14:47.117Z,100877.06
2022-08-26T08:17:16.028Z,100873.63
2022-08-26T08:19:44.711Z,100875.78
2022-08-26T08:22:17.857Z,100868.19
2022-08-26T08:24:49.777Z,100858.91
2022-08-26T08:27:22.796Z,100855.28
2022-08-26T08:29:54.186Z,100865.16
2022-08-26T08:32:23.513Z,100867.31
2022-08-26T08:34:51.352Z,100853.81
2022-08-26T08:37:18.887Z,100849.00
2022-08-26T08:39:46.191Z,100856.34
2022-08-26T08:42:43.870Z,100847.97
2022-08-26T08:45:20.512Z,100848.63
2022-08-26T08:47:51.831Z,100850.06
2022-08-26T08:50:33.974Z,100846.81
2022-08-26T08:53:21.999Z,100853.25
2022-08-26T08:56:03.122Z,100850.72
2022-08-26T08:58:53.516Z,100847.56
2022-08-26T09:01:37.634Z,100846.25
2022-08-26T09:04:20.275Z,100849.47
2022-08-26T09:06:48.915Z,100837.16
2022-08-26T09:09:18.962Z,100852.34
2022-08-26T09:11:46.188Z,100838.03
2022-08-26T09:14:13.401Z,100844.50
2022-08-26T09:16:51.803Z,100843.41
2022-08-26T09:19:26.525Z,100838.59
2022-08-26T09:21:58.650Z,100842.31
2022-08-26T09:24:28.604Z,100839.78
2022-08-26T09:26:58.277Z,100831.16
2022-08-26T09:29:31.359Z,100834.31
2022-08-26T09:32:24.065Z,100833.25
2022-08-26T09:35:09.495Z,100821.97
2022-08-26T09:40:34.910Z,100821.41
2022-08-26T09:43:16.671Z,100818.31
2022-08-26T09:45:59.156Z,100807.75
2022-08-26T09:48:30.849Z,100805.66
2022-08-26T09:51:04.140Z,100809.38
2022-08-26T09:53:37.040Z,100798.38
2022-08-26T09:56:29.830Z,100794.28
2022-08-26T09:58:58.177Z,100784.53
2022-08-26T10:01:36.098Z,100774.28
2022-08-26T10:04:15.389Z,100769.19
2022-08-26T10:07:07.474Z,100758.44
2022-08-26T10:09:39.527Z,100741.97
2022-08-26T10:12:19.541Z,100733.88
2022-08-26T10:14:53.014Z,100736.00
2022-08-26T10:17:32.497Z,100736.38
2022-08-26T10:20:22.555Z,100743.00
2022-08-26T10:23:02.294Z,100738.16
2022-08-26T10:25:35.990Z,100733.03
2022-08-26T10:28:27.455Z,100725.81
2022-08-26T10:31:05.364Z,100728.97
2022-08-26T10:33:32.971Z,100724.69
2022-08-26T10:36:06.232Z,100722.03
2022-08-26T10:38:36.354Z,100705.13
2022-08-26T10:41:10.725Z,100708.50
2022-08-26T10:43:51.796Z,100702.09
2022-08-26T10:46:27.588Z,100705.84
2022-08-26T10:49:00.127Z,100702.00
2022-08-26T10:51:35.649Z,100703.72
2022-08-26T10:54:13.693Z,100702.06
2022-08-26T10:57:10.559Z,100711.91
2022-08-26T11:03:34.534Z,100710.25
2022-08-26T11:06:31.783Z,100720.38
2022-08-26T11:09:07.827Z,100715.75
2022-08-26T11:11:42.592Z,100713.84
2022-08-26T11:14:53.263Z,100720.13
2022-08-26T11:17:44.462Z,100709.13
2022-08-26T11:20:30.089Z,100697.56
2022-08-26T11:23:13.328Z,100679.44
2022-08-26T11:25:59.738Z,100682.97
2022-08-26T11:28:50.087Z,100677.31
2022-08-26T11:31:30.494Z,100694.97
2022-08-26T11:34:01.186Z,100689.53
2022-08-26T11:36:49.158Z,100681.06
2022-08-26T11:39:55.145Z,100673.81
2022-08-26T11:42:32.037Z,100673.66
2022-08-26T11:45:03.538Z,100671.97
2022-08-26T11:47:33.243Z,100679.75
2022-08-26T11:50:27.513Z,100680.88
2022-08-26T11:53:04.584Z,100672.25
2022-08-26T11:55:36.305Z,100669.34
2022-08-26T11:58:05.841Z,100681.44
2022-08-26T12:00:45.610Z,100686.91
2022-08-26T12:03:23.169Z,100688.63
2022-08-26T12:05:52.641Z,100684.41
2022-08-26T12:08:24.855Z,100683.34
2022-08-26T12:11:10.094Z,100684.59
2022-08-26T12:13:39.211Z,100663.56
2022-08-26T12:16:06.952Z,100636.25
2022-08-26T12:18:38.041Z,100643.66
2022-08-26T12:21:14.417Z,100657.66
2022-08-26T12:23:47.044Z,100668.13
2022-08-26T12:26:27.674Z,100696.25
2022-08-26T12:29:26.529Z,100702.28
2022-08-26T12:32:13.528Z,100716.53
2022-08-26T12:34:42.539Z,100713.81
2022-08-26T12:37:12.132Z,100732.44
2022-08-26T12:39:42.368Z,100733.19
2022-08-26T12:42:15.798Z,100740.28
2022-08-26T12:44:53.816Z,100745.97
2022-08-26T12:47:42.678Z,100752.63
2022-08-26T12:50:27.406Z,100749.78
2022-08-26T12:53:02.319Z,100749.78
2022-08-26T12:55:32.431Z,100746.94
2022-08-26T12:58:29.931Z,100743.88
2022-08-26T13:01:19.495Z,100732.34
2022-08-26T13:03:47.592Z,100713.06
2022-08-26T13:06:31.615Z,100720.78
2022-08-26T13:09:08.020Z,100710.44
2022-08-26T13:11:58.762Z,100722.03
2022-08-26T13:14:26.304Z,100716.75
2022-08-26T13:16:53.953Z,100715.06
2022-08-26T13:19:25.861Z,100715.41
2022-08-26T13:21:57.788Z,100725.66
2022-08-26T13:24:44.740Z,100724.09
2022-08-26T13:27:14.548Z,100725.69
2022-08-26T13:29:41.848Z,100725.91
2022-08-26T13:32:09.571Z,100726.25
2022-08-26T13:34:37.965Z,100737.75
2022-08-26T13:37:05.618Z,100756.75
2022-08-26T13:39:33.183Z,100771.72
2022-08-26T13:42:00.589Z,100783.28
2022-08-26T13:44:29.446Z,100801.28
2022-08-26T13:46:56.717Z,100803.97
2022-08-26T13:49:23.974Z,100816.84
2022-08-26T13:51:51.383Z,100821.47
2022-08-26T13:54:19.933Z,100824.25
2022-08-26T13:56:47.230Z,100822.53
2022-08-26T13:59:14.461Z,100816.78
2022-08-26T14:01:41.773Z,100805.06
2022-08-26T14:04:09.397Z,100795.44
2022-08-26T14:06:37.385Z,100792.47
2022-08-26T14:09:05.052Z,100789.53
2022-08-26T14:11:45.026Z,100789.66
2022-08-26T14:14:19.871Z,100793.31
2022-08-26T14:16:58.946Z,100777.13
2022-08-26T14:19:27.937Z,100760.28
2022-08-26T14:21:55.221Z,100732.59
2022-08-26T14:24:22.443Z,100722.41
2022-08-26T14:26:49.926Z,100716.06
2022-08-26T14:29:17.230Z,100705.09
2022-08-26T14:31:45.071Z,100693.88
2022-08-26T14:34:13.402Z,100692.44
2022-08-26T14:36:40.657Z,100678.16
2022-08-26T14:39:10.519Z,100675.97
2022-08-26T14:41:54.062Z,100673.44
2022-08-26T14:44:26.785Z,100669.63
2022-08-26T14:46:54.562Z,100666.66
2022-08-26T14:49:23.484Z,100650.63
2022-08-26T14:51:50.964Z,100644.28
2022-08-26T14:54:18.992Z,100638.94
2022-08-26T14:56:57.536Z,100635.75
2022-08-26T14:59:30.267Z,100623.56
2022-08-26T15:01:59.096Z,100622.50
2022-08-26T15:04:26.486Z,100608.53
2022-08-26T15:06:54.878Z,100596.72
2022-08-26T15:09:23.129Z,100592.84
2022-08-26T15:11:50.908Z,100589.75
2022-08-26T15:14:19.562Z,100576.75
2022-08-26T15:16:47.959Z,100576.84
2022-08-26T15:19:16.240Z,100576.63
2022-08-26T15:21:45.257Z,100570.56
2022-08-26T15:24:13.472Z,100574.72
2022-08-26T15:26:41.764Z,100571.28
2022-08-26T15:29:09.301Z,100567.63
2022-08-26T15:31:36.979Z,100554.75
2022-08-26T15:34:07.036Z,100554.88
2022-08-26T15:36:35.563Z,100551.56
2022-08-26T15:39:02.875Z,100533.94
2022-08-26T15:41:30.148Z,100527.69
2022-08-26T15:44:03.411Z,100524.25
2022-08-26T15:46:31.680Z,100525.00
2022-08-26T15:48:59.119Z,100523.91
2022-08-26T15:51:31.806Z,100519.16
2022-08-26T15:53:59.792Z,100515.53
2022-08-26T15:56:29.470Z,100516.97
2022-08-26T15:58:57.731Z,100523.69
2022-08-26T16:01:27.539Z,100524.72
2022-08-26T16:03:55.782Z,100534.72
2022-08-26T16:06:27.495Z,100536.41
2022-08-26T16:08:57.263Z,100529.56
2022-08-26T16:11:25.695Z,100539.44
2022-08-26T16:13:53.142Z,100550.25
2022-08-26T16:16:22.245Z,100555.81
2022-08-26T16:18:52.760Z,100566.03
2022-08-26T16:21:28.064Z,100566.63
2022-08-26T16:23:57.680Z,100574.25
2022-08-26T16:26:28.056Z,100577.25
2022-08-26T16:28:58.348Z,100584.06
2022-08-26T16:31:25.947Z,100607.81
2022-08-26T16:33:53.206Z,100608.97
2022-08-26T16:36:20.754Z,100601.41
2022-08-26T16:38:56.699Z,100595.06
2022-08-26T16:41:29.232Z,100603.56
2022-08-26T16:43:57.625Z,100595.53
2022-08-26T16:46:26.244Z,100603.22
2022-08-26T16:48:56.616Z,100604.28
2022-08-26T16:51:27.386Z,100605.03
2022-08-26T16:53:56.272Z,100613.09
2022-08-26T16:56:27.732Z,100616.22
2022-08-26T16:59:02.183Z,100617.78
2022-08-26T17:01:29.736Z,100619.03
2022-08-26T17:03:57.670Z,100632.59
2022-08-26T17:06:24.977Z,100634.03
2022-08-26T17:08:53.145Z,100632.44
2022-08-26T17:11:20.428Z,100637.66
2022-08-26T17:13:47.961Z,100639.25
2022-08-26T17:16:15.605Z,100641.53
2022-08-26T17:18:42.973Z,100633.50
2022-08-26T17:21:12.627Z,100627.28
2022-08-26T17:23:41.032Z,100617.09
2022-08-26T17:26:09.154Z,100623.56
2022-08-26T17:28:36.958Z,100609.75
2022-08-26T17:31:04.989Z,100612.56
2022-08-26T17:33:33.037Z,100611.84
2022-08-26T17:36:00.910Z,100611.13
2022-08-26T17:38:29.181Z,100600.13
2022-08-26T17:40:57.459Z,100600.13
2022-08-26T17:43:26.845Z,100593.22
2022-08-26T17:46:06.691Z,100598.69
2022-08-26T17:48:35.330Z,100607.09
2022-08-26T17:51:10.570Z,100602.13
2022-08-26T17:53:37.957Z,100594.06
2022-08-26T17:56:09.686Z,100597.75
2022-08-26T17:58:37.883Z,100590.09
2022-08-26T18:01:06.205Z,100586.81
2022-08-26T18:03:33.849Z,100584.13
2022-08-26T18:06:01.267Z,100580.50
2022-08-26T18:08:28.754Z,100582.75
2022-08-26T18:10:56.169Z,100578.50
2022-08-26T18:13:23.518Z,100578.78
2022-08-26T18:15:50.926Z,100584.28
2022-08-26T18:18:18.278Z,100577.56
2022-08-26T18:20:45.969Z,100582.44
2022-08-26T18:23:20.149Z,100578.88
2022-08-26T18:25:47.727Z,100578.03
2022-08-26T18:30:57.544Z,100583.38
2022-08-26T18:33:25.005Z,100584.16
2022-08-26T18:35:52.799Z,100575.53
2022-08-26T18:38:20.047Z,100571.00
2022-08-26T18:40:49.718Z,100574.44
2022-08-26T18:43:16.965Z,100584.28
2022-08-26T18:45:44.224Z,100574.09
2022-08-26T18:48:11.739Z,100572.16
2022-08-26T18:50:40.395Z,100566.31
2022-08-26T18:53:08.357Z,100564.88
2022-08-26T18:55:35.678Z,100557.44
2022-08-26T18:58:03.038Z,100562.31
2022-08-26T19:00:31.561Z,100558.78
2022-08-26T19:02:58.920Z,100567.81
2022-08-26T19:05:27.872Z,100560.50
2022-08-26T19:07:56.547Z,100566.13
2022-08-26T19:10:24.779Z,100571.81
2022-08-26T19:12:53.736Z,100591.06
2022-08-26T19:15:22.694Z,100603.72
2022-08-26T19:17:50.270Z,100600.94
2022-08-26T19:20:17.534Z,100616.72
2022-08-26T19:22:46.006Z,100624.63
2022-08-26T19:25:13.657Z,100629.00
2022-08-26T19:27:41.330Z,100646.56
2022-08-26T19:30:09.882Z,100644.22
2022-08-26T19:32:37.163Z,100663.81
2022-08-26T19:35:05.978Z,100666.41
2022-08-26T19:37:33.226Z,100662.97
2022-08-26T19:40:00.571Z,100663.81
2022-08-26T19:42:27.980Z,100661.28
2022-08-26T19:45:18.261Z,100660.19
2022-08-26T19:47:53.629Z,100662.50
2022-08-26T19:50:21.998Z,100658.56
2022-08-26T19:52:49.374Z,100649.31
2022-08-26T19:55:18.716Z,100646.16
2022-08-26T19:57:46.014Z,100648.97
2022-08-26T20:00:15.991Z,100647.84
2022-08-26T20:02:44.284Z,100647.00
2022-08-26T20:05:13.423Z,100634.00
2022-08-26T20:07:41.322Z,100631.94
2022-08-26T20:10:12.405Z,100633.41
2022-08-26T20:12:41.602Z,100636.69
2022-08-26T20:15:10.637Z,100646.03
2022-08-26T20:17:38.017Z,100637.63
2022-08-26T20:20:26.967Z,100639.28
2022-08-26T20:23:01.713Z,100640.38
2022-08-26T20:25:29.104Z,100646.31
2022-08-26T20:27:56.400Z,100653.25
2022-08-26T20:30:23.779Z,100651.28
2022-08-26T20:32:51.340Z,100656.19
2022-08-26T20:35:18.728Z,100642.56
2022-08-26T20:40:27.257Z,100649.03
2022-08-26T20:42:54.578Z,100651.72
2022-08-26T20:45:22.239Z,100655.22
2022-08-26T20:47:49.459Z,100667.63
2022-08-26T20:50:16.668Z,100663.28
2022-08-26T20:52:43.957Z,100668.38
2022-08-26T20:55:13.167Z,100665.69
2022-08-26T20:57:43.264Z,100668.38
2022-08-26T21:00:13.408Z,100675.19
2022-08-26T21:02:41.405Z,100670.56
2022-08-26T21:05:09.175Z,100674.94
2022-08-26T21:07:36.439Z,100661.69
2022-08-26T21:10:04.933Z,100664.72
2022-08-26T21:12:32.264Z,100665.81
2022-08-26T21:14:59.504Z,100666.03
2022-08-26T21:17:26.948Z,100669.09
2022-08-26T21:19:54.354Z,100657.75
2022-08-26T21:22:21.752Z,100668.38
2022-08-26T21:24:49.096Z,100671.16
2022-08-26T21:27:17.640Z,100662.03
2022-08-26T21:29:53.554Z,100669.91
2022-08-26T21:32:20.799Z,100667.13
2022-08-26T21:34:48.527Z,100670.56
2022-08-26T21:37:16.562Z,100661.03
2022-08-26T21:39:44.406Z,100654.50
2022-08-26T21:42:13.090Z,100670.56
2022-08-26T21:44:40.664Z,100665.81
2022-08-26T21:47:08.087Z,100672.50
2022-08-26T21:49:36.228Z,100664.34
2022-08-26T21:52:04.544Z,100660.59
2022-08-26T21:54:33.870Z,100661.44
2022-08-26T21:57:01.131Z,100662.53
2022-08-26T21:59:28.377Z,100676.75
2022-08-26T22:01:56.170Z,100671.31
2022-08-26T22:04:23.449Z,100662.03
2022-08-26T22:06:53.674Z,100655.72
2022-08-26T22:09:26.277Z,100664.06
2022-08-26T22:11:54.163Z,100658.38
2022-08-26T22:14:25.395Z,100658.84
2022-08-26T22:16:58.353Z,100660.09
2022-08-26T22:19:25.653Z,100657.88
2022-08-26T22:21:54.557Z,100663.47
2022-08-26T22:24:23.697Z,100652.75
2022-08-26T22:26:51.045Z,100639.53
2022-08-26T22:29:18.799Z,100644.03
2022-08-26T22:31:48.892Z,100640.97
2022-08-26T22:34:19.476Z,100644.38
2022-08-26T22:36:48.205Z,100641.81
2022-08-26T22:39:18.728Z,100643.41
2022-08-26T22:41:48.777Z,100643.41
2022-08-26T22:44:17.716Z,100641.50
2022-08-26T22:46:45.550Z,100634.53
2022-08-26T22:49:16.295Z,100623.91
2022-08-26T22:51:44.417Z,100619.78
2022-08-26T22:54:12.089Z,100607.28
2022-08-26T22:56:39.601Z,100601.81
2022-08-26T22:59:08.058Z,100591.22
2022-08-26T23:01:37.318Z,100582.94
2022-08-26T23:04:06.307Z,100584.28
2022-08-26T23:06:36.579Z,100573.34
2022-08-26T23:09:05.193Z,100580.28
2022-08-26T23:11:32.809Z,100576.38
2022-08-26T23:14:01.477Z,100563.47
2022-08-26T23:16:39.142Z,100566.41
2022-08-26T23:19:10.841Z,100561.53
2022-08-26T23:21:38.636Z,100563.13
2022-08-26T23:24:07.298Z,100564.72
2022-08-26T23:26:35.738Z,100565.41
2022-08-26T23:29:06.366Z,100570.31
2022-08-26T23:31:34.263Z,100580.16
2022-08-26T23:34:20.070Z,100571.28
2022-08-26T23:36:47.757Z,100573.47
2022-08-26T23:39:15.213Z,100571.56
2022-08-26T23:41:42.530Z,100581.88
2022-08-26T23:44:09.831Z,100585.91
2022-08-26T23:46:37.126Z,100584.56
2022-08-26T23:49:04.985Z,100593.44
2022-08-26T23:51:51.019Z,100603.78
2022-08-26T23:54:19.529Z,100603.78
2022-08-26T23:56:47.048Z,100594.66
2022-08-26T23:59:15.595Z,100599.75
